Time;durP1;ratioP1;P1;durP2;ratioP2;P2;SDS_P1;SDS_P2;PMS_P1;PMS_P2;Temp;Humidity;BMP_temperature;BMP_pressure;BME280_temperature;BME280_humidity;BME280_pressure;Samples;Min_cycle;Max_cycle;Signal;HPM_P1;HPM_P2
2022/05/22 00:04:54;;;;;;;0.00;0.00;;;;;;;10.16;82.10;101919.47;10413496;28;20053;-80
2022/05/22 00:09:55;;;;;;;0.00;0.00;;;;;;;10.15;82.54;101922.88;10418480;28;20111;-79
2022/05/22 00:14:57;;;;;;;0.00;0.00;;;;;;;10.12;82.14;101917.59;10416534;28;20095;-80
2022/05/22 00:19:58;;;;;;;0.00;0.00;;;;;;;10.01;82.82;101913.66;10416689;28;20054;-79
2022/05/22 00:25:00;;;;;;;0.00;0.00;;;;;;;9.91;82.98;101917.50;10418427;28;20056;-79
2022/05/22 00:30:02;;;;;;;0.00;0.00;;;;;;;9.77;81.46;101904.03;10415752;28;20049;-80
2022/05/22 00:35:05;;;;;;;0.00;0.00;;;;;;;9.97;80.99;101896.31;10416412;28;20050;-80
2022/05/22 00:40:08;;;;;;;0.00;0.00;;;;;;;9.87;81.14;101891.56;10431574;28;20037;-79
2022/05/22 00:45:10;;;;;;;0.00;0.00;;;;;;;9.83;81.97;101891.44;10416322;28;20057;-80
2022/05/22 00:50:12;;;;;;;0.00;0.00;;;;;;;9.64;82.52;101892.28;10415435;28;20084;-80
2022/05/22 00:55:17;;;;;;;0.08;0.08;;;;;;;9.64;81.86;101881.13;10414231;28;20051;-79
2022/05/22 01:00:29;;;;;;;0.00;0.00;;;;;;;9.55;82.08;101870.41;10413063;28;20064;-80
2022/05/22 01:05:31;;;;;;;0.00;0.00;;;;;;;9.60;81.32;101868.94;10413893;28;20045;-79
2022/05/22 01:10:54;;;;;;;0.00;0.00;;;;;;;9.47;82.52;101872.63;10413288;28;20037;-79
2022/05/22 01:15:56;;;;;;;0.00;0.00;;;;;;;9.36;83.08;101874.69;10414398;28;20092;-80
2022/05/22 01:20:58;;;;;;;0.00;0.00;;;;;;;9.37;83.66;101879.03;10412297;28;20045;-79
2022/05/22 01:26:04;;;;;;;0.00;0.00;;;;;;;8.96;82.80;101872.84;10398107;28;20057;-80
2022/05/22 01:31:06;;;;;;;0.00;0.00;;;;;;;8.92;82.53;101876.94;10411968;28;20685;-80
2022/05/22 01:36:09;;;;;;;0.00;0.00;;;;;;;8.94;82.02;101874.44;10395758;28;20138;-79
2022/05/22 01:41:15;;;;;;;0.00;0.00;;;;;;;8.95;82.90;101871.06;10412174;28;20080;-79
2022/05/22 01:46:18;;;;;;;0.00;0.00;;;;;;;8.87;81.42;101869.00;10396309;28;20053;-81
2022/05/22 01:51:35;;;;;;;0.00;0.00;;;;;;;8.86;81.78;101872.38;10388230;28;20074;-79
2022/05/22 01:56:37;;;;;;;0.00;0.00;;;;;;;8.70;82.60;101859.59;10393466;28;20056;-80
2022/05/22 02:01:41;;;;;;;0.00;0.00;;;;;;;8.82;82.09;101860.19;10411328;28;20045;-80
2022/05/22 02:12:06;;;;;;;0.00;0.00;;;;;;;8.70;82.17;101864.72;10410283;28;20037;-80
2022/05/22 02:17:09;;;;;;;0.00;0.00;;;;;;;8.63;83.50;101858.44;10427167;28;20051;-80
2022/05/22 02:22:23;;;;;;;0.00;0.00;;;;;;;8.52;83.80;101865.59;10410242;28;20466;-81
2022/05/22 02:27:24;;;;;;;0.00;0.00;;;;;;;8.42;83.77;101859.06;10410959;28;20055;-80
2022/05/22 02:32:27;;;;;;;0.00;0.00;;;;;;;8.16;84.86;101842.34;10394127;28;20052;-80
2022/05/22 02:37:29;;;;;;;0.00;0.00;;;;;;;8.20;83.38;101831.44;10410388;28;20049;-80
2022/05/22 02:42:31;;;;;;;0.00;0.00;;;;;;;8.10;83.20;101836.91;10393629;28;20077;-81
2022/05/22 02:47:34;;;;;;;0.00;0.00;;;;;;;7.65;85.15;101836.28;10410204;28;20103;-80
2022/05/22 02:52:36;;;;;;;0.00;0.00;;;;;;;7.97;83.82;101842.22;10393377;28;20045;-79
2022/05/22 02:57:40;;;;;;;0.00;0.00;;;;;;;7.83;84.39;101832.13;10410049;28;20038;-80
2022/05/22 03:02:43;;;;;;;0.00;0.00;;;;;;;7.88;85.43;101819.53;10409369;28;20069;-80
2022/05/22 03:07:45;;;;;;;0.00;0.00;;;;;;;7.50;84.60;101824.41;10409199;28;20049;-79
2022/05/22 03:13:03;;;;;;;0.00;0.00;;;;;;;7.54;84.35;101826.34;10409640;28;20049;-79
2022/05/22 03:18:09;;;;;;;0.00;0.00;;;;;;;7.75;83.98;101825.72;10393452;28;20045;-80
2022/05/22 03:23:10;;;;;;;0.00;0.00;;;;;;;7.24;85.40;101823.91;10409364;28;20073;-79
2022/05/22 03:28:13;;;;;;;0.00;0.00;;;;;;;7.55;84.92;101833.25;10409035;28;20137;-81
2022/05/22 03:33:17;;;;;;;0.00;0.00;;;;;;;7.69;84.41;101821.13;10392829;28;20053;-81
2022/05/22 03:38:25;;;;;;;0.00;0.00;;;;;;;7.42;84.63;101820.53;10427151;28;20080;-82
2022/05/22 03:43:36;;;;;;;0.00;0.00;;;;;;;7.67;83.81;101817.59;10401528;28;20057;-80
2022/05/22 03:48:40;;;;;;;0.00;0.00;;;;;;;7.62;84.17;101822.50;10416999;28;20053;-80
2022/05/22 03:53:42;;;;;;;0.00;0.00;;;;;;;7.54;85.03;101816.09;10417650;28;20041;-79
2022/05/22 03:58:53;;;;;;;0.00;0.00;;;;;;;7.74;84.94;101829.94;10401154;28;20072;-80
2022/05/22 04:03:57;;;;;;;0.00;0.00;;;;;;;8.02;84.89;101830.50;10404086;28;20473;-80
2022/05/22 04:08:59;;;;;;;0.00;0.00;;;;;;;8.05;84.47;101835.78;10421337;28;20140;-80
2022/05/22 04:14:21;;;;;;;0.00;0.00;;;;;;;8.12;82.95;101817.34;10422899;28;20128;-80
2022/05/22 04:19:39;;;;;;;0.00;0.00;;;;;;;7.84;84.09;101815.03;10420322;28;20514;-80
2022/05/22 04:30:08;;;;;;;0.00;0.00;;;;;;;8.13;83.90;101803.72;10420408;28;20047;-79
2022/05/22 04:35:20;;;;;;;0.00;0.00;;;;;;;7.92;85.91;101793.22;10403593;28;20047;-80
2022/05/22 04:40:23;;;;;;;0.00;0.00;;;;;;;8.45;85.66;101801.84;10402616;28;20045;-80
2022/05/22 04:45:25;;;;;;;0.00;0.00;;;;;;;8.75;84.31;101796.44;10401968;28;20254;-80
2022/05/22 04:50:27;;;;;;;0.00;0.00;;;;;;;8.98;84.91;101797.56;10416345;28;20057;-80
2022/05/22 04:55:56;;;;;;;0.00;0.00;;;;;;;9.09;85.56;101795.47;10417460;28;20054;-80
2022/05/22 05:00:58;;;;;;;0.00;0.00;;;;;;;9.36;86.03;101784.69;10418297;28;20076;-80
2022/05/22 05:06:08;;;;;;;0.00;0.00;;;;;;;9.82;85.68;101781.56;10417951;28;20056;-80
2022/05/22 05:11:12;;;;;;;0.00;0.00;;;;;;;10.21;85.91;101783.19;10417061;28;20512;-81
2022/05/22 05:16:28;;;;;;;0.00;0.00;;;;;;;10.37;87.15;101797.63;10418826;28;20501;-82
2022/05/22 05:21:56;;;;;;;0.00;0.00;;;;;;;10.61;87.12;101794.28;10415224;28;20080;-80
2022/05/22 05:26:58;;;;;;;0.00;0.00;;;;;;;10.89;85.44;101795.38;10418870;28;20104;-80
2022/05/22 05:32:32;;;;;;;0.00;0.00;;;;;;;11.16;84.23;101785.25;10418511;28;20414;-81
2022/05/22 05:37:35;;;;;;;0.00;0.00;;;;;;;11.15;84.35;101782.59;10401444;28;20107;-80
2022/05/22 05:42:48;;;;;;;0.00;0.00;;;;;;;11.41;83.88;101787.03;10400940;28;20076;-80
2022/05/22 05:47:51;;;;;;;0.00;0.00;;;;;;;11.80;82.62;101790.09;10435445;28;20037;-80
2022/05/22 05:52:59;;;;;;;0.00;0.00;;;;;;;12.03;82.43;101788.34;10419758;28;20144;-79
2022/05/22 05:58:36;;;;;;;0.30;0.30;;;;;;;12.11;81.95;101786.00;10417779;28;20049;-81
2022/05/22 06:04:09;;;;;;;0.00;0.00;;;;;;;12.35;81.20;101778.22;10414991;28;20469;-80
2022/05/22 06:09:11;;;;;;;0.00;0.00;;;;;;;12.72;79.99;101776.78;10417365;28;20045;-80
2022/05/22 06:14:20;;;;;;;0.00;0.00;;;;;;;12.93;77.94;101784.31;10417222;28;20526;-80
2022/05/22 06:24:47;;;;;;;0.00;0.00;;;;;;;13.46;78.47;101788.47;10417328;28;20053;-79
2022/05/22 06:30:15;;;;;;;0.00;0.00;;;;;;;13.39;76.30;101797.78;10418052;28;20046;-81
2022/05/22 06:35:28;;;;;;;0.00;0.00;;;;;;;13.85;75.98;101785.22;10416597;28;20527;-80
2022/05/22 06:40:41;;;;;;;0.00;0.00;;;;;;;14.04;74.72;101780.50;10402007;28;20718;-81
2022/05/22 06:46:05;;;;;;;0.00;0.00;;;;;;;14.38;71.80;101783.94;10437448;22;20053;-78
2022/05/22 06:51:25;;;;;;;;;;;;;;;16.05;70.83;101792.66;10413318;28;20057;-78
2022/05/22 06:56:40;;;;;;;0.00;0.00;;;;;;;16.36;67.02;101782.75;10441042;28;19929;-80
2022/05/22 07:01:54;;;;;;;0.00;0.00;;;;;;;16.57;66.32;101781.38;10412538;28;20095;-80
2022/05/22 07:06:55;;;;;;;0.00;0.00;;;;;;;16.79;66.21;101790.34;10412649;28;20152;-80
2022/05/22 07:12:16;;;;;;;0.00;0.00;;;;;;;17.03;63.23;101781.16;10413732;28;20522;-80
2022/05/22 07:17:24;;;;;;;0.00;0.00;;;;;;;17.16;60.88;101777.88;10423624;28;20052;-80
2022/05/22 07:22:30;;;;;;;0.00;0.00;;;;;;;17.95;60.63;101770.00;10418524;28;20065;-80
2022/05/22 07:27:50;;;;;;;0.00;0.00;;;;;;;17.98;59.83;101765.75;10408632;28;20064;-80
2022/05/22 07:33:09;;;;;;;0.00;0.00;;;;;;;17.29;59.23;101773.69;10420049;28;20099;-78
2022/05/22 07:38:13;;;;;;;0.00;0.00;;;;;;;18.07;56.52;101759.75;10417321;28;20052;-80
2022/05/22 07:43:34;;;;;;;;;;;;;;;18.64;56.27;101762.75;10431153;28;20053;-77
2022/05/22 07:48:42;;;;;;;0.00;0.00;;;;;;;19.37;52.81;101762.25;10431482;28;19925;-78
2022/05/22 07:54:22;;;;;;;0.00;0.00;;;;;;;19.57;55.00;101763.16;10412778;28;20073;-79
2022/05/22 07:59:39;;;;;;;0.00;0.00;;;;;;;19.15;51.66;101756.94;10415368;28;20055;-81
2022/05/22 08:05:05;;;;;;;0.00;0.00;;;;;;;19.29;53.84;101751.75;10422094;28;20132;-80
2022/05/22 08:10:08;;;;;;;0.00;0.00;;;;;;;19.09;52.53;101759.53;10417397;28;20104;-78
2022/05/22 08:15:13;;;;;;;0.00;0.00;;;;;;;18.08;51.78;101769.31;10423429;28;20059;-79
2022/05/22 08:20:18;;;;;;;0.28;0.20;;;;;;;19.71;50.83;101749.25;10433138;28;20140;-80
2022/05/22 08:25:33;;;;;;;0.00;0.00;;;;;;;20.19;50.61;101734.47;10435078;28;20041;-78
2022/05/22 08:30:36;;;;;;;0.00;0.00;;;;;;;20.38;47.98;101726.59;10417521;28;20049;-80
2022/05/22 08:35:40;;;;;;;0.00;0.00;;;;;;;20.25;46.31;101724.00;10449417;28;20083;-80
2022/05/22 08:40:52;;;;;;;0.00;0.00;;;;;;;20.55;44.15;101713.50;10437130;28;20100;-82
2022/05/22 08:46:02;;;;;;;0.05;0.03;;;;;;;20.10;45.23;101710.94;10445692;28;20453;-84
2022/05/22 08:51:08;;;;;;;;;;;;;;;20.45;46.24;101704.75;10415965;28;20069;-82
2022/05/22 09:01:40;;;;;;;0.00;0.00;;;;;;;19.93;45.47;101698.72;10416204;28;20060;-83
2022/05/22 09:06:50;;;;;;;0.00;0.00;;;;;;;21.30;43.40;101688.69;10420408;28;20064;-82
2022/05/22 09:12:08;;;;;;;7.13;0.52;;;;;;;21.24;42.59;101684.41;10427188;28;20284;-83
2022/05/22 09:17:17;;;;;;;0.00;0.00;;;;;;;21.07;44.09;101673.13;10446975;28;20049;-82
2022/05/22 09:22:23;;;;;;;0.00;0.00;;;;;;;21.74;43.67;101667.47;10451630;28;20051;-82
2022/05/22 09:27:40;;;;;;;0.00;0.00;;;;;;;21.24;42.81;101662.53;10430595;28;20502;-80
2022/05/22 09:32:54;;;;;;;0.00;0.00;;;;;;;21.77;44.21;101654.31;10416050;28;20029;-80
2022/05/22 09:38:25;;;;;;;0.00;0.00;;;;;;;21.60;43.14;101639.59;10429282;28;20037;-80
2022/05/22 09:43:42;;;;;;;0.00;0.00;;;;;;;22.23;42.98;101632.88;10447174;28;20049;-81
2022/05/22 09:48:58;;;;;;;0.00;0.00;;;;;;;21.99;38.94;101626.13;10451297;28;20041;-82
2022/05/22 09:54:24;;;;;;;0.00;0.00;;;;;;;22.11;44.39;101623.38;10450070;28;20452;-81
2022/05/22 10:00:09;;;;;;;0.00;0.00;;;;;;;22.34;42.84;101628.34;10423354;28;20473;-83
2022/05/22 10:05:29;;;;;;;0.00;0.00;;;;;;;21.77;41.90;101638.56;10432797;28;20073;-83
2022/05/22 10:11:02;;;;;;;0.00;0.00;;;;;;;21.68;42.70;101636.91;10448742;28;20036;-83
2022/05/22 10:16:29;;;;;;;0.00;0.00;;;;;;;21.01;44.05;101633.88;10416720;28;20053;-85
2022/05/22 10:21:49;;;;;;;0.00;0.00;;;;;;;22.36;43.15;101620.47;10422485;28;20493;-84
2022/05/22 10:26:59;;;;;;;0.00;0.00;;;;;;;22.23;46.09;101605.78;10390516;28;20540;-83
2022/05/22 10:32:09;;;;;;;0.55;0.32;;;;;;;21.36;39.46;101615.31;10394664;28;20054;-83
2022/05/22 10:37:36;;;;;;;2.45;1.00;;;;;;;21.98;41.98;101601.63;10374996;28;20041;-84
2022/05/22 10:42:47;;;;;;;3.50;1.10;;;;;;;22.17;44.39;101594.44;10423250;28;20498;-84
2022/05/22 10:47:53;;;;;;;3.97;1.00;;;;;;;22.22;41.35;101588.28;10430554;28;20045;-84
2022/05/22 10:52:56;;;;;;;5.40;1.23;;;;;;;22.31;40.42;101601.28;10408487;28;20031;-84
2022/05/22 10:58:02;;;;;;;3.92;1.15;;;;;;;22.65;37.74;101585.13;10413901;28;20061;-83
2022/05/22 11:03:13;;;;;;;4.70;1.10;;;;;;;22.29;42.49;101582.06;10411160;28;20049;-85
2022/05/22 11:08:28;;;;;;;2.15;0.80;;;;;;;22.36;41.72;101567.97;10440664;28;20059;-85
2022/05/22 11:13:30;;;;;;;3.55;1.30;;;;;;;22.19;40.96;101563.81;10419793;28;20060;-84
2022/05/22 11:18:31;;;;;;;2.88;1.10;;;;;;;22.02;43.59;101547.38;10412485;28;20041;-87
2022/05/22 11:23:55;;;;;;;1.05;0.77;;;;;;;22.15;41.44;101545.47;10446661;28;20050;-84
2022/05/22 11:29:21;;;;;;;3.55;1.02;;;;;;;22.33;44.11;101539.13;10424710;28;20045;-85
2022/05/22 11:34:34;;;;;;;3.55;1.20;;;;;;;22.40;41.81;101527.69;10431532;28;20054;-86
2022/05/22 11:39:52;;;;;;;3.53;1.17;;;;;;;22.24;41.54;101527.00;10410959;28;20050;-86
2022/05/22 11:45:18;;;;;;;3.95;1.23;;;;;;;23.06;42.15;101517.94;10409090;28;20061;-84
2022/05/22 11:50:43;;;;;;;2.05;0.85;;;;;;;21.87;38.02;101517.81;10412136;28;20502;-87
2022/05/22 11:56:23;;;;;;;1.60;0.90;;;;;;;21.83;39.92;101505.63;10385842;28;20052;-85
2022/05/22 12:01:45;;;;;;;2.78;1.00;;;;;;;22.83;40.07;101492.06;10383883;28;20388;-82
2022/05/22 12:06:53;;;;;;;3.70;0.68;;;;;;;22.39;38.63;101494.44;10401131;28;20096;-87
2022/05/22 12:12:23;;;;;;;4.28;1.10;;;;;;;22.30;41.70;101484.91;10408856;28;20498;-85
2022/05/22 12:17:32;;;;;;;6.25;1.15;;;;;;;22.03;42.94;101491.41;10382582;28;20049;-85
2022/05/22 12:28:24;;;;;;;2.92;1.00;;;;;;;22.45;42.89;101475.97;10402790;28;20065;-85
2022/05/22 12:33:32;;;;;;;3.03;0.98;;;;;;;22.28;38.56;101480.59;10398643;28;20053;-84
2022/05/22 12:38:44;;;;;;;3.30;0.90;;;;;;;21.91;38.46;101481.06;10399047;28;20117;-83
2022/05/22 12:43:46;;;;;;;2.72;0.73;;;;;;;21.81;36.98;101465.44;10403342;28;20507;-87
2022/05/22 12:48:48;;;;;;;3.25;0.82;;;;;;;22.36;39.85;101457.72;10436834;22;20049;-78
2022/05/22 12:53:52;;;;;;;2.00;0.80;;;;;;;21.55;39.33;101450.84;10417986;28;20060;-78
2022/05/22 12:58:55;;;;;;;3.25;1.30;;;;;;;21.20;38.81;101452.06;10420495;28;20044;-78
2022/05/22 13:04:01;;;;;;;1.85;1.00;;;;;;;21.83;39.25;101442.69;10414096;28;20411;-78
2022/05/22 13:09:06;;;;;;;1.90;1.02;;;;;;;21.91;40.91;101431.22;10401703;28;20112;-77
2022/05/22 13:14:27;;;;;;;3.63;1.08;;;;;;;22.03;42.29;101423.19;10405309;28;20050;-78
2022/05/22 13:19:32;;;;;;;8.10;1.52;;;;;;;21.39;41.26;101423.06;10390865;28;20049;-78
2022/05/22 13:24:38;;;;;;;4.68;1.75;;;;;;;21.55;40.44;101416.78;10410803;28;20669;-78
2022/05/22 13:29:59;;;;;;;5.43;1.75;;;;;;;21.38;40.07;101413.47;10401697;28;20666;-78
2022/05/22 13:35:14;;;;;;;4.28;1.35;;;;;;;21.39;39.90;101400.34;10416827;28;20455;-78
2022/05/22 13:40:23;;;;;;;3.17;1.30;;;;;;;21.32;38.27;101405.69;10417666;28;20041;-78
2022/05/22 13:45:47;;;;;;;3.27;1.43;;;;;;;21.94;42.29;101394.44;10411042;28;20037;-77
2022/05/22 13:57:04;;;;;;;4.40;1.42;;;;;;;21.63;42.97;101371.28;10414600;28;20100;-78
2022/05/22 14:02:14;;;;;;;7.80;1.48;;;;;;;21.90;43.37;101359.53;10411898;28;20046;-78
2022/05/22 14:07:29;;;;;;;2.50;1.08;;;;;;;22.17;45.60;101353.00;10428721;28;20103;-77
2022/05/22 14:12:37;;;;;;;4.35;1.45;;;;;;;21.66;40.91;101350.25;10395175;28;20049;-77
2022/05/22 14:17:39;;;;;;;4.28;1.42;;;;;;;21.49;40.81;101329.47;10410201;28;20064;-78
2022/05/22 14:22:43;;;;;;;4.35;1.17;;;;;;;21.51;41.49;101335.56;10411168;28;20571;-77
2022/05/22 14:27:48;;;;;;;2.17;1.20;;;;;;;21.67;42.09;101336.25;10412977;28;20390;-77
2022/05/22 14:32:56;;;;;;;2.08;1.15;;;;;;;21.87;39.64;101318.47;10412742;28;20053;-76
2022/05/22 14:38:07;;;;;;;5.43;1.40;;;;;;;21.71;39.64;101307.34;10414082;28;20053;-76
2022/05/22 14:43:09;;;;;;;2.35;1.02;;;;;;;21.21;36.80;101309.69;10411416;28;20126;-76
2022/05/22 14:48:14;;;;;;;3.60;1.30;;;;;;;21.66;41.49;101297.81;10412870;28;20049;-77
2022/05/22 14:53:37;;;;;;;3.95;1.48;;;;;;;21.76;41.45;101295.91;10413758;28;20050;-76
2022/05/22 14:58:50;;;;;;;4.07;1.38;;;;;;;21.72;37.24;101292.47;10414487;28;20049;-76
2022/05/22 15:03:53;;;;;;;4.63;1.40;;;;;;;21.93;41.00;101278.16;10414589;28;20512;-76
2022/05/22 15:09:01;;;;;;;6.35;3.03;;;;;;;21.27;40.73;101271.19;10412244;28;20055;-77
2022/05/22 15:14:21;;;;;;;3.95;1.60;;;;;;;21.27;41.12;101269.47;10411075;28;20041;-76
2022/05/22 15:30:15;;;;;;;6.72;1.77;;;;;;;21.58;39.90;101247.22;10408829;28;20069;-76
2022/05/22 15:35:22;;;;;;;4.38;1.90;;;;;;;21.56;40.81;101245.47;10413205;28;20099;-76
2022/05/22 15:40:24;;;;;;;4.38;1.90;;;;;;;21.33;39.46;101239.69;10414953;28;20312;-78
2022/05/22 15:45:26;;;;;;;4.90;1.85;;;;;;;21.43;40.21;101233.41;10415718;28;20050;-76
2022/05/22 15:50:47;;;;;;;7.63;1.80;;;;;;;21.54;41.95;101225.41;10414977;28;20034;-78
2022/05/22 15:55:48;;;;;;;5.03;1.73;;;;;;;21.41;38.77;101214.22;10417503;28;20049;-83
2022/05/22 16:00:50;;;;;;;3.58;1.40;;;;;;;21.59;40.94;101225.38;10419085;28;20052;-83
2022/05/22 16:05:52;;;;;;;4.13;1.83;;;;;;;21.44;40.43;101213.34;10416819;28;20049;-82
2022/05/22 16:10:53;;;;;;;3.88;2.00;;;;;;;21.57;39.42;101209.66;10414897;28;20471;-81
2022/05/22 16:15:56;;;;;;;4.60;1.58;;;;;;;21.70;40.24;101210.34;10417046;28;20041;-81
2022/05/22 16:20:58;;;;;;;5.22;1.98;;;;;;;22.02;45.08;101201.06;10415926;28;20045;-83
2022/05/22 16:26:00;;;;;;;3.58;1.83;;;;;;;21.56;39.78;101198.28;10416380;28;20095;-83
2022/05/22 16:31:03;;;;;;;2.50;1.60;;;;;;;21.42;40.47;101188.91;10397637;28;20048;-81
2022/05/22 16:36:05;;;;;;;4.45;1.88;;;;;;;21.26;42.37;101185.63;10416065;28;20052;-82
2022/05/22 16:41:07;;;;;;;3.35;1.63;;;;;;;21.22;43.67;101179.56;10415238;28;20045;-82
2022/05/22 16:46:29;;;;;;;3.38;1.73;;;;;;;21.25;43.98;101171.66;10413236;28;20447;-81
2022/05/22 16:56:54;;;;;;;4.15;1.95;;;;;;;21.15;44.81;101149.97;10415421;28;20408;-82
2022/05/22 17:01:55;;;;;;;4.32;1.90;;;;;;;20.77;45.02;101138.25;10396356;28;20052;-82
2022/05/22 17:06:59;;;;;;;3.75;1.73;;;;;;;20.71;43.84;101143.53;10396632;28;20508;-82
2022/05/22 17:12:02;;;;;;;4.00;1.38;;;;;;;20.91;44.84;101146.78;10413700;28;20104;-81
2022/05/22 17:17:07;;;;;;;2.88;1.50;;;;;;;20.88;44.32;101152.09;10412861;28;20053;-83
2022/05/22 17:22:17;;;;;;;2.05;1.23;;;;;;;20.83;43.57;101153.88;10412328;28;20095;-82
2022/05/22 17:27:24;;;;;;;3.70;1.70;;;;;;;21.04;45.92;101151.84;10414982;28;20444;-82
2022/05/22 17:32:27;;;;;;;5.63;1.90;;;;;;;20.79;44.83;101148.69;10429245;28;20550;-82
2022/05/22 17:37:32;;;;;;;2.72;1.60;;;;;;;20.68;46.39;101138.34;10427679;28;20172;-81
2022/05/22 17:42:34;;;;;;;4.57;1.50;;;;;;;20.39;44.43;101135.19;10425321;28;20049;-82
2022/05/22 17:47:38;;;;;;;4.72;1.48;;;;;;;20.52;46.40;101128.03;10429690;28;20064;-81
2022/05/22 17:52:40;;;;;;;3.90;1.45;;;;;;;20.36;48.32;101116.06;10413783;28;20079;-82
2022/05/22 17:57:42;;;;;;;4.45;1.60;;;;;;;20.04;47.29;101114.63;10419652;28;20072;-82
2022/05/22 18:02:44;;;;;;;5.43;1.83;;;;;;;19.96;48.79;101106.84;10410210;28;20041;-81
2022/05/22 18:07:47;;;;;;;6.00;1.60;;;;;;;19.94;48.40;101104.25;10411751;28;20057;-82
2022/05/22 18:18:08;;;;;;;;;;;;;;;19.66;48.10;101104.50;10410600;28;20111;-82
2022/05/22 18:23:11;;;;;;;4.88;2.38;;;;;;;19.44;49.26;101102.94;10409962;28;19924;-81
2022/05/22 18:28:17;;;;;;;4.00;1.80;;;;;;;19.16;49.19;101101.38;10410629;28;20496;-81
2022/05/22 18:33:19;;;;;;;4.25;1.52;;;;;;;19.00;48.84;101098.00;10409329;28;20045;-81
2022/05/22 18:38:22;;;;;;;8.10;2.90;;;;;;;18.94;50.49;101092.84;10409200;28;20444;-81
2022/05/22 18:43:25;;;;;;;4.78;1.83;;;;;;;18.84;50.27;101086.72;10410518;28;20104;-81
2022/05/22 18:48:29;;;;;;;8.68;1.80;;;;;;;18.76;50.77;101072.00;10409789;28;20056;-81
2022/05/22 18:53:32;;;;;;;5.07;2.10;;;;;;;18.44;52.12;101075.63;10410262;28;20052;-81
2022/05/22 18:58:33;;;;;;;6.97;1.98;;;;;;;18.38;51.99;101072.19;10408062;28;20068;-81
2022/05/22 19:03:36;;;;;;;6.47;2.03;;;;;;;18.28;51.86;101069.59;10408487;28;20531;-81
2022/05/22 19:08:37;;;;;;;4.53;1.70;;;;;;;18.16;52.46;101054.88;10408173;28;20481;-81
2022/05/22 19:13:56;;;;;;;4.25;1.98;;;;;;;18.10;52.25;101060.97;10409930;28;20049;-81
2022/05/22 19:18:59;;;;;;;4.28;1.75;;;;;;;18.06;51.93;101059.25;10409315;28;20481;-81
2022/05/22 19:24:00;;;;;;;4.15;2.20;;;;;;;17.97;52.15;101064.47;10409456;28;20060;-81
2022/05/22 19:29:14;;;;;;;6.67;2.10;;;;;;;17.87;52.08;101058.38;10408685;28;20127;-81
2022/05/22 19:34:16;;;;;;;5.57;2.00;;;;;;;17.71;53.02;101049.72;10408782;28;20057;-81
2022/05/22 19:39:18;;;;;;;4.53;1.85;;;;;;;17.65;53.30;101055.81;10410209;28;20096;-81
2022/05/22 19:44:25;;;;;;;5.40;1.83;;;;;;;17.58;53.21;101056.69;10412571;28;20133;-81
2022/05/22 19:49:30;;;;;;;3.72;1.80;;;;;;;17.41;53.93;101057.56;10411170;28;20100;-81
2022/05/22 19:59:52;;;;;;;3.38;1.67;;;;;;;17.11;54.86;101046.25;10407802;28;20559;-81
2022/05/22 20:04:54;;;;;;;2.85;1.60;;;;;;;17.08;55.12;101043.66;10407624;28;20111;-81
2022/05/22 20:09:55;;;;;;;3.78;1.80;;;;;;;17.01;55.26;101052.34;10408061;28;20045;-81
2022/05/22 20:14:57;;;;;;;4.10;1.70;;;;;;;16.91;55.76;101058.34;10407549;28;20500;-81
2022/05/22 20:19:59;;;;;;;4.72;1.90;;;;;;;16.75;56.17;101053.09;10407754;28;20037;-81
2022/05/22 20:25:01;;;;;;;3.92;1.58;;;;;;;16.84;55.63;101047.03;10416272;28;20049;-81
2022/05/22 20:30:09;;;;;;;4.55;1.90;;;;;;;16.73;55.61;101049.63;10419619;28;20385;-81
2022/05/22 20:35:13;;;;;;;5.65;1.90;;;;;;;16.64;55.54;101049.63;10416511;28;20053;-82
2022/05/22 20:40:17;;;;;;;3.58;1.70;;;;;;;16.68;55.97;101050.50;10415196;28;20041;-81
2022/05/22 20:45:24;;;;;;;4.43;1.55;;;;;;;16.42;56.37;101049.50;10414593;28;20389;-81
2022/05/22 20:50:27;;;;;;;4.15;1.85;;;;;;;16.39;56.88;101044.31;10413060;28;20057;-81
2022/05/22 21:00:58;;;;;;;3.97;2.03;;;;;;;16.09;57.66;101019.91;10413577;28;20121;-81
2022/05/22 21:06:02;;;;;;;3.80;1.80;;;;;;;16.01;57.92;101013.81;10412665;28;20107;-81
2022/05/22 21:11:03;;;;;;;7.40;1.95;;;;;;;15.83;58.79;101007.63;10413608;28;20133;-81
2022/05/22 21:16:05;;;;;;;3.33;1.80;;;;;;;15.71;59.57;101004.94;10428978;28;20045;-81
2022/05/22 21:21:07;;;;;;;3.35;1.92;;;;;;;15.66;59.08;100999.72;10412404;28;20460;-81
2022/05/22 21:31:47;;;;;;;6.72;2.13;;;;;;;15.64;58.66;100996.22;10411775;28;20056;-81
2022/05/22 21:36:49;;;;;;;5.03;2.13;;;;;;;15.64;58.68;100990.19;10413111;28;20033;-81
2022/05/22 21:41:51;;;;;;;5.28;1.90;;;;;;;15.63;59.07;100988.44;10411224;28;20050;-81
2022/05/22 21:46:53;;;;;;;3.22;1.75;;;;;;;15.72;58.76;100993.69;10411872;28;20512;-81
2022/05/22 21:51:57;;;;;;;3.97;1.90;;;;;;;15.54;59.25;100997.91;10412280;28;20067;-81
2022/05/22 21:56:59;;;;;;;4.25;1.67;;;;;;;15.60;58.60;100993.63;10411601;28;20116;-80
2022/05/22 22:02:01;;;;;;;3.95;1.77;;;;;;;15.58;59.13;100982.34;10410211;28;20049;-81
2022/05/22 22:07:03;;;;;;;5.47;1.80;;;;;;;15.59;59.07;100986.69;10412444;28;20072;-80
2022/05/22 22:12:06;;;;;;;4.53;1.77;;;;;;;15.74;58.90;100981.59;10410849;28;20103;-81
2022/05/22 22:17:08;;;;;;;4.38;1.70;;;;;;;15.67;59.06;100985.88;10410921;28;20072;-81
2022/05/22 22:22:13;;;;;;;4.25;2.13;;;;;;;15.71;58.33;100989.38;10411375;28;20069;-80
2022/05/22 22:27:14;;;;;;;5.90;1.83;;;;;;;15.71;58.61;100976.38;10411559;28;20060;-81
2022/05/22 22:32:16;;;;;;;8.65;1.90;;;;;;;15.68;59.28;100969.44;10410835;28;20050;-81
2022/05/22 22:37:18;;;;;;;4.60;1.98;;;;;;;15.59;59.35;100960.72;10410780;28;20509;-81
2022/05/22 22:42:20;;;;;;;4.05;1.73;;;;;;;15.60;59.11;100958.13;10409178;28;20107;-80
2022/05/22 22:47:26;;;;;;;4.63;2.00;;;;;;;15.60;58.81;100945.16;10410988;28;20049;-81
2022/05/22 22:52:28;;;;;;;3.88;2.03;;;;;;;15.55;58.77;100932.13;10408751;28;20065;-80
2022/05/22 23:02:51;;;;;;;3.72;2.00;;;;;;;15.68;58.84;100919.22;10409921;28;20471;-81
2022/05/22 23:07:53;;;;;;;5.78;2.05;;;;;;;15.55;59.80;100908.75;10409192;28;20045;-80
2022/05/22 23:12:55;;;;;;;4.38;1.70;;;;;;;15.45;59.48;100898.31;10409012;28;20095;-81
2022/05/22 23:18:02;;;;;;;4.25;1.98;;;;;;;15.53;59.34;100891.44;10409784;28;20054;-81
2022/05/22 23:23:04;;;;;;;3.67;1.73;;;;;;;15.54;58.59;100894.03;10409352;28;20045;-80
2022/05/22 23:28:07;;;;;;;4.57;1.80;;;;;;;15.69;58.29;100893.25;10408712;28;20514;-81
2022/05/22 23:33:10;;;;;;;7.03;2.00;;;;;;;15.74;58.77;100888.09;10409879;28;20057;-81
2022/05/22 23:38:15;;;;;;;4.30;1.73;;;;;;;15.53;58.70;100883.66;10409613;28;20049;-81
2022/05/22 23:43:17;;;;;;;4.95;1.63;;;;;;;15.71;59.06;100877.69;10410108;28;20050;-81
2022/05/22 23:48:19;;;;;;;3.53;1.70;;;;;;;15.60;59.65;100863.78;10408595;28;20064;-81
2022/05/22 23:53:20;;;;;;;3.22;2.00;;;;;;;15.51;60.24;100860.28;10410553;28;20045;-81
2022/05/22 23:58:24;;;;;;;5.18;2.25;;;;;;;15.54;61.05;100852.50;10414789;28;20054;-81
